createdAt,value
2023-02-11T00:01:22.130Z,3.00
2023-02-11T00:06:25.847Z,2.90
2023-02-11T00:11:30.756Z,3.00
2023-02-11T00:16:35.192Z,2.90
2023-02-11T00:21:39.242Z,2.80
2023-02-11T00:26:42.170Z,2.80
2023-02-11T00:31:46.501Z,2.80
2023-02-11T00:36:49.666Z,2.70
2023-02-11T00:41:52.806Z,2.80
2023-02-11T00:46:57.027Z,2.70
2023-02-11T00:52:00.025Z,2.70
2023-02-11T00:57:03.024Z,2.60
2023-02-11T01:02:07.246Z,2.50
2023-02-11T01:07:10.403Z,2.50
2023-02-11T01:12:13.503Z,2.40
2023-02-11T01:17:18.458Z,2.50
2023-02-11T01:22:21.391Z,2.40
2023-02-11T01:27:24.313Z,2.10
2023-02-11T01:32:28.528Z,2.00
2023-02-11T01:37:33.626Z,2.00
2023-02-11T01:42:36.662Z,2.10
2023-02-11T01:47:40.874Z,2.30
2023-02-11T01:52:46.278Z,2.40
2023-02-11T01:57:56.376Z,2.50
2023-02-11T02:03:06.127Z,2.50
2023-02-11T02:08:17.166Z,2.40
2023-02-11T02:13:20.058Z,2.30
2023-02-11T02:18:36.804Z,2.40
2023-02-11T02:24:03.412Z,2.50
2023-02-11T02:29:36.176Z,2.60
2023-02-11T02:34:49.137Z,2.50
2023-02-11T02:39:52.100Z,2.40
2023-02-11T02:44:57.100Z,2.60
2023-02-11T02:50:01.714Z,2.60
2023-02-11T02:55:23.802Z,2.70
2023-02-11T03:00:35.123Z,2.70
2023-02-11T03:05:53.065Z,2.70
2023-02-11T03:10:57.533Z,2.70
2023-02-11T03:16:05.705Z,2.60
2023-02-11T03:21:12.075Z,2.60
2023-02-11T03:26:20.908Z,2.70
2023-02-11T03:31:31.648Z,2.70
2023-02-11T03:36:46.097Z,2.60
2023-02-11T03:41:50.972Z,2.40
2023-02-11T03:46:55.987Z,2.30
2023-02-11T03:52:05.664Z,2.40
2023-02-11T03:57:08.773Z,2.30
2023-02-11T04:02:11.668Z,2.50
2023-02-11T04:07:15.918Z,2.30
2023-02-11T04:12:19.007Z,2.10
2023-02-11T04:17:21.939Z,2.10
2023-02-11T04:22:26.190Z,2.10
2023-02-11T04:27:29.241Z,2.90
2023-02-11T04:32:32.145Z,2.20
2023-02-11T04:37:36.731Z,2.00
2023-02-11T04:42:39.662Z,2.10
2023-02-11T04:47:42.587Z,2.00
2023-02-11T04:52:46.828Z,2.10
2023-02-11T04:57:49.720Z,2.10
2023-02-11T05:02:52.637Z,2.20
2023-02-11T05:07:56.928Z,2.10
2023-02-11T05:12:59.860Z,2.00
2023-02-11T05:18:02.788Z,1.60
2023-02-11T05:23:07.062Z,1.60
2023-02-11T05:28:09.970Z,1.70
2023-02-11T05:33:12.863Z,1.80
2023-02-11T05:38:17.139Z,2.00
2023-02-11T05:43:20.050Z,1.90
2023-02-11T05:48:23.078Z,1.90
2023-02-11T05:53:27.340Z,2.00
2023-02-11T05:58:30.413Z,2.10
2023-02-11T06:03:33.375Z,2.00
2023-02-11T06:08:39.192Z,1.90
2023-02-11T06:13:42.414Z,1.40
2023-02-11T06:18:45.338Z,1.30
2023-02-11T06:23:49.988Z,1.50
2023-02-11T06:28:52.974Z,1.70
2023-02-11T06:33:55.984Z,1.60
2023-02-11T06:39:00.246Z,1.70
2023-02-11T06:44:03.128Z,1.60
2023-02-11T06:49:06.047Z,1.70
2023-02-11T06:54:10.304Z,1.90
2023-02-11T06:59:16.634Z,2.20
2023-02-11T07:04:19.772Z,2.10
2023-02-11T07:09:24.026Z,2.10
2023-02-11T07:14:26.944Z,2.20
2023-02-11T07:19:29.827Z,2.10
2023-02-11T07:24:34.230Z,2.10
2023-02-11T07:29:37.372Z,2.40
2023-02-11T07:34:40.307Z,2.40
2023-02-11T07:39:44.568Z,2.50
2023-02-11T07:44:50.333Z,2.50
2023-02-11T07:49:56.205Z,2.40
2023-02-11T07:55:02.669Z,2.10
2023-02-11T08:00:08.150Z,2.10
2023-02-11T08:05:14.155Z,2.30
2023-02-11T08:10:18.479Z,2.10
2023-02-11T08:15:21.468Z,2.20
2023-02-11T08:20:24.374Z,2.10
2023-02-11T08:25:28.672Z,2.20
2023-02-11T08:30:31.576Z,2.50
2023-02-11T08:35:36.448Z,2.70
2023-02-11T08:40:40.704Z,2.80
2023-02-11T08:45:43.686Z,3.00
2023-02-11T08:50:46.705Z,3.20
2023-02-11T08:55:52.100Z,3.40
2023-02-11T09:00:55.343Z,3.50
2023-02-11T09:05:58.424Z,3.40
2023-02-11T09:11:03.731Z,3.50
2023-02-11T09:16:07.444Z,3.60
2023-02-11T09:21:12.816Z,3.90
2023-02-11T09:26:19.201Z,4.20
2023-02-11T09:31:24.776Z,4.40
2023-02-11T09:36:30.557Z,4.60
2023-02-11T09:42:02.624Z,4.90
2023-02-11T09:47:08.062Z,5.00
2023-02-11T09:52:31.620Z,5.10
2023-02-11T09:57:37.482Z,5.20
2023-02-11T10:02:57.788Z,5.40
2023-02-11T10:08:13.627Z,5.60
2023-02-11T10:13:33.607Z,5.90
2023-02-11T10:18:47.732Z,5.80
2023-02-11T10:23:55.394Z,6.00
2023-02-11T10:29:06.537Z,6.20
2023-02-11T10:34:15.547Z,6.40
2023-02-11T10:39:20.696Z,6.50
2023-02-11T10:44:28.804Z,6.60
2023-02-11T10:49:39.864Z,6.80
2023-02-11T10:54:42.795Z,6.80
2023-02-11T11:00:02.761Z,6.90
2023-02-11T11:05:16.146Z,7.00
2023-02-11T11:10:29.468Z,7.10
2023-02-11T11:15:39.769Z,7.10
2023-02-11T11:20:54.432Z,7.50
2023-02-11T11:26:05.110Z,7.50
2023-02-11T11:31:19.008Z,7.70
2023-02-11T11:36:24.748Z,7.80
2023-02-11T11:41:30.673Z,7.90
2023-02-11T11:46:37.314Z,8.00
2023-02-11T11:51:43.142Z,8.10
2023-02-11T11:56:54.503Z,7.90
2023-02-11T12:02:42.073Z,8.10
2023-02-11T12:07:57.545Z,8.10
2023-02-11T12:13:13.964Z,8.00
2023-02-11T12:19:04.855Z,8.00
2023-02-11T12:24:43.294Z,8.20
2023-02-11T12:30:08.028Z,8.10
2023-02-11T12:42:42.175Z,8.50
2023-02-11T12:49:05.459Z,8.50
2023-02-11T13:07:10.860Z,8.60
2023-02-11T13:12:33.175Z,8.70
2023-02-11T13:17:50.370Z,8.70
2023-02-11T13:23:20.950Z,8.70
2023-02-11T13:28:36.615Z,8.90
2023-02-11T13:33:44.511Z,8.90
2023-02-11T13:39:08.087Z,9.00
2023-02-11T13:44:24.633Z,9.00
2023-02-11T13:49:35.320Z,9.10
2023-02-11T13:54:40.406Z,9.20
2023-02-11T13:59:48.394Z,9.30
2023-02-11T14:05:43.572Z,9.30
2023-02-11T14:10:55.067Z,9.30
2023-02-11T14:16:09.408Z,9.30
2023-02-11T14:21:16.962Z,9.40
2023-02-11T14:26:39.016Z,9.30
2023-02-11T14:31:46.251Z,9.30
2023-02-11T14:36:59.268Z,9.40
2023-02-11T14:42:03.552Z,9.40
2023-02-11T14:47:07.576Z,9.50
2023-02-11T14:52:22.393Z,9.40
2023-02-11T14:57:25.353Z,9.50
2023-02-11T15:02:33.395Z,9.50
2023-02-11T15:07:37.744Z,9.50
2023-02-11T15:12:40.750Z,9.60
2023-02-11T15:17:44.918Z,9.60
2023-02-11T15:22:53.133Z,9.60
2023-02-11T15:27:58.442Z,9.60
2023-02-11T15:33:03.748Z,9.60
2023-02-11T15:38:08.967Z,9.60
2023-02-11T15:43:44.161Z,9.60
2023-02-11T15:48:49.794Z,9.60
2023-02-11T15:53:57.120Z,9.60
2023-02-11T15:59:10.363Z,9.50
2023-02-11T16:04:19.522Z,9.40
2023-02-11T16:09:33.732Z,9.40
2023-02-11T16:14:39.187Z,9.40
2023-02-11T16:19:46.666Z,9.40
2023-02-11T16:24:53.524Z,9.40
2023-02-11T16:29:57.135Z,9.40
2023-02-11T16:35:01.823Z,9.40
2023-02-11T16:40:07.147Z,9.20
2023-02-11T16:45:12.178Z,9.20
2023-02-11T16:50:23.558Z,9.10
2023-02-11T16:55:27.891Z,9.10
2023-02-11T17:00:31.026Z,8.90
2023-02-11T17:05:45.837Z,8.50
2023-02-11T17:10:57.591Z,8.20
2023-02-11T17:16:01.851Z,8.30
2023-02-11T17:21:07.672Z,8.40
2023-02-11T17:26:12.066Z,8.50
2023-02-11T17:31:15.452Z,8.50
2023-02-11T17:36:18.571Z,8.10
2023-02-11T17:41:23.136Z,8.10
2023-02-11T17:46:44.467Z,8.30
2023-02-11T17:51:48.039Z,8.30
2023-02-11T17:56:55.220Z,8.20
2023-02-11T18:02:00.117Z,8.30
2023-02-11T18:07:03.185Z,8.20
2023-02-11T18:12:14.112Z,7.70
2023-02-11T18:17:17.275Z,7.80
2023-02-11T18:23:02.612Z,7.90
2023-02-11T18:28:07.033Z,7.90
2023-02-11T18:33:12.774Z,7.80
2023-02-11T18:38:15.932Z,7.70
2023-02-11T18:43:21.090Z,7.70
2023-02-11T18:48:24.102Z,7.50
2023-02-11T18:53:27.213Z,7.50
2023-02-11T18:58:31.709Z,7.50
2023-02-11T19:03:34.673Z,7.50
2023-02-11T19:08:37.650Z,7.50
2023-02-11T19:13:42.177Z,7.50
2023-02-11T19:19:01.233Z,7.30
2023-02-11T19:24:11.591Z,7.30
2023-02-11T19:29:16.974Z,7.30
2023-02-11T19:34:44.228Z,7.30
2023-02-11T19:40:00.942Z,7.30
2023-02-11T19:45:13.085Z,7.30
2023-02-11T19:50:22.113Z,7.20
2023-02-11T19:55:32.211Z,7.20
2023-02-11T20:01:39.664Z,7.20
2023-02-11T20:13:28.483Z,7.50
2023-02-11T20:18:35.474Z,7.20
2023-02-11T20:23:42.524Z,7.30
2023-02-11T20:36:07.129Z,7.30
2023-02-11T20:41:14.988Z,7.30
2023-02-11T20:46:20.139Z,7.40
2023-02-11T20:51:28.409Z,7.40
2023-02-11T20:56:36.609Z,7.40
2023-02-11T21:01:58.946Z,7.40
2023-02-11T21:07:03.232Z,7.60
2023-02-11T21:12:17.518Z,7.60
2023-02-11T21:17:20.970Z,7.20
2023-02-11T21:22:23.963Z,7.30
2023-02-11T21:27:32.308Z,7.40
2023-02-11T21:32:35.225Z,7.40
2023-02-11T21:37:38.176Z,7.40
2023-02-11T21:42:53.649Z,7.40
2023-02-11T21:47:56.598Z,7.50
2023-02-11T21:52:59.523Z,7.50
2023-02-11T21:58:04.095Z,7.50
2023-02-11T22:03:07.018Z,7.50
2023-02-11T22:08:09.983Z,7.50
2023-02-11T22:13:14.434Z,7.50
2023-02-11T22:18:17.348Z,7.50
2023-02-11T22:23:20.234Z,7.10
2023-02-11T22:28:26.083Z,7.10
2023-02-11T22:33:29.608Z,7.10
2023-02-11T22:38:33.743Z,7.30
2023-02-11T22:43:38.775Z,7.40
2023-02-11T22:48:41.730Z,7.20
2023-02-11T22:53:44.709Z,7.10
2023-02-11T22:58:49.993Z,7.20
2023-02-11T23:03:53.032Z,7.10
2023-02-11T23:08:56.278Z,7.10
2023-02-11T23:14:08.563Z,7.20
2023-02-11T23:19:12.382Z,7.20
2023-02-11T23:24:16.109Z,7.30
2023-02-11T23:29:20.391Z,7.30
2023-02-11T23:34:25.463Z,7.30
2023-02-11T23:39:28.389Z,7.40
2023-02-11T23:44:32.833Z,7.40
2023-02-11T23:49:36.066Z,7.40
2023-02-11T23:54:38.976Z,7.20
2023-02-11T23:59:43.320Z,7.30
